createdAt,value
2022-11-24T00:00:13.905Z,6.13
2022-11-24T00:01:20.931Z,6.47
2022-11-24T00:02:23.349Z,6.32
2022-11-24T00:03:28.388Z,5.65
2022-11-24T00:04:30.869Z,8.68
2022-11-24T00:05:38.563Z,7.07
2022-11-24T00:06:40.885Z,7.57
2022-11-24T00:07:45.519Z,6.90
2022-11-24T00:08:47.661Z,6.90
2022-11-24T00:09:52.374Z,6.68
2022-11-24T00:10:54.495Z,6.78
2022-11-24T00:12:01.690Z,6.55
2022-11-24T00:13:03.693Z,6.40
2022-11-24T00:14:09.531Z,8.45
2022-11-24T00:15:11.619Z,7.07
2022-11-24T00:16:18.243Z,7.13
2022-11-24T00:17:20.346Z,6.07
2022-11-24T00:18:25.039Z,5.43
2022-11-24T00:19:29.835Z,6.45
2022-11-24T00:20:31.854Z,5.72
2022-11-24T00:21:36.656Z,5.88
2022-11-24T00:22:38.886Z,5.25
2022-11-24T00:23:43.864Z,6.78
2022-11-24T00:24:45.966Z,5.78
2022-11-24T00:25:50.599Z,6.28
2022-11-24T00:26:52.833Z,5.78
2022-11-24T00:28:00.247Z,5.28
2022-11-24T00:29:05.145Z,5.35
2022-11-24T00:30:12.534Z,5.55
2022-11-24T00:31:17.653Z,5.65
2022-11-24T00:32:22.416Z,5.50
2022-11-24T00:33:24.521Z,5.90
2022-11-24T00:34:29.250Z,6.85
2022-11-24T00:35:31.463Z,5.85
2022-11-24T00:36:40.293Z,6.80
2022-11-24T00:37:42.385Z,6.57
2022-11-24T00:38:47.803Z,6.55
2022-11-24T00:39:49.809Z,6.43
2022-11-24T00:40:55.059Z,5.80
2022-11-24T00:41:57.253Z,5.88
2022-11-24T00:43:04.492Z,6.72
2022-11-24T00:44:07.054Z,5.82
2022-11-24T00:45:14.170Z,5.60
2022-11-24T00:46:16.540Z,5.70
2022-11-24T00:47:21.448Z,5.80
2022-11-24T00:48:23.719Z,5.70
2022-11-24T00:49:28.406Z,5.80
2022-11-24T00:50:30.501Z,6.35
2022-11-24T00:51:35.400Z,5.70
2022-11-24T00:52:37.883Z,7.15
2022-11-24T00:53:43.603Z,5.72
2022-11-24T00:54:45.775Z,5.25
2022-11-24T00:55:52.094Z,5.70
2022-11-24T00:56:54.157Z,5.72
2022-11-24T00:57:58.894Z,6.22
2022-11-24T00:59:03.748Z,5.95
2022-11-24T01:00:10.156Z,6.82
2022-11-24T01:01:13.963Z,6.28
2022-11-24T01:02:18.796Z,5.60
2022-11-24T01:03:21.614Z,6.03
2022-11-24T01:04:26.520Z,5.90
2022-11-24T01:05:28.623Z,5.07
2022-11-24T01:06:35.754Z,5.45
2022-11-24T01:07:38.845Z,5.63
2022-11-24T01:08:44.781Z,5.53
2022-11-24T01:09:46.925Z,6.45
2022-11-24T01:10:51.559Z,5.90
2022-11-24T01:12:02.930Z,5.75
2022-11-24T01:13:12.626Z,5.78
2022-11-24T01:14:17.535Z,5.78
2022-11-24T01:15:22.450Z,5.97
2022-11-24T01:16:26.808Z,6.57
2022-11-24T01:17:31.766Z,6.35
2022-11-24T01:18:34.096Z,6.32
2022-11-24T01:19:38.843Z,6.55
2022-11-24T01:20:40.908Z,5.40
2022-11-24T01:21:49.584Z,5.20
2022-11-24T01:22:51.681Z,6.10
2022-11-24T01:23:56.360Z,5.32
2022-11-24T01:24:58.410Z,5.18
2022-11-24T01:26:03.160Z,4.47
2022-11-24T01:27:10.463Z,5.88
2022-11-24T01:28:13.873Z,6.65
2022-11-24T01:29:21.057Z,5.30
2022-11-24T01:30:23.255Z,4.97
2022-11-24T01:31:29.168Z,6.00
2022-11-24T01:32:33.273Z,6.13
2022-11-24T01:33:39.371Z,6.28
2022-11-24T01:34:41.469Z,4.68
2022-11-24T01:35:46.152Z,5.47
2022-11-24T01:36:50.818Z,5.30
2022-11-24T01:37:53.065Z,6.15
2022-11-24T01:38:57.763Z,5.93
2022-11-24T01:40:00.025Z,5.88
2022-11-24T01:41:06.499Z,5.20
2022-11-24T01:42:09.325Z,5.53
2022-11-24T01:43:19.865Z,5.35
2022-11-24T01:44:31.892Z,5.10
2022-11-24T01:45:36.772Z,5.50
2022-11-24T01:46:46.266Z,5.68
2022-11-24T01:47:48.426Z,5.30
2022-11-24T01:48:58.967Z,5.50
2022-11-24T01:50:03.312Z,4.32
2022-11-24T01:51:15.985Z,5.07
2022-11-24T01:52:25.211Z,4.32
2022-11-24T01:53:27.364Z,5.55
2022-11-24T01:54:36.357Z,4.07
2022-11-24T01:55:40.463Z,4.55
2022-11-24T01:56:49.180Z,3.58
2022-11-24T01:57:54.837Z,4.53
2022-11-24T01:59:02.154Z,4.70
2022-11-24T02:00:10.464Z,3.75
2022-11-24T02:01:15.734Z,3.88
2022-11-24T02:02:18.922Z,4.55
2022-11-24T02:03:26.993Z,4.28
2022-11-24T02:04:33.589Z,3.88
2022-11-24T02:05:44.569Z,4.60
2022-11-24T02:06:47.576Z,3.53
2022-11-24T02:07:53.962Z,4.35
2022-11-24T02:09:00.263Z,3.78
2022-11-24T02:10:10.460Z,4.03
2022-11-24T02:11:12.571Z,4.57
2022-11-24T02:12:17.392Z,4.00
2022-11-24T02:13:20.334Z,3.97
2022-11-24T02:14:27.679Z,3.95
2022-11-24T02:15:32.850Z,4.30
2022-11-24T02:16:39.932Z,4.25
2022-11-24T02:17:42.020Z,4.13
2022-11-24T02:18:47.260Z,4.63
2022-11-24T02:19:54.494Z,4.28
2022-11-24T02:20:59.725Z,4.82
2022-11-24T02:22:03.134Z,4.43
2022-11-24T02:23:18.621Z,3.67
2022-11-24T02:24:25.530Z,3.47
2022-11-24T02:25:40.029Z,4.07
2022-11-24T02:26:46.699Z,4.68
2022-11-24T02:27:54.121Z,4.13
2022-11-24T02:28:57.119Z,4.82
2022-11-24T02:30:02.148Z,3.40
2022-11-24T02:31:06.220Z,3.65
2022-11-24T02:32:14.871Z,3.67
2022-11-24T02:33:17.661Z,4.15
2022-11-24T02:34:22.305Z,3.70
2022-11-24T02:35:27.231Z,3.50
2022-11-24T02:36:31.996Z,4.50
2022-11-24T02:37:34.208Z,5.03
2022-11-24T02:38:39.396Z,4.03
2022-11-24T02:39:41.491Z,4.65
2022-11-24T02:40:50.649Z,6.05
2022-11-24T02:42:00.846Z,4.50
2022-11-24T02:43:10.851Z,3.47
2022-11-24T02:44:15.975Z,3.65
2022-11-24T02:45:20.990Z,3.50
2022-11-24T02:46:23.462Z,3.40
2022-11-24T02:47:28.403Z,3.50
2022-11-24T02:48:30.457Z,3.75
2022-11-24T02:49:35.195Z,3.58
2022-11-24T02:50:37.948Z,4.20
2022-11-24T02:51:42.581Z,3.50
2022-11-24T02:52:44.680Z,3.80
2022-11-24T02:53:49.348Z,3.53
2022-11-24T02:54:51.408Z,4.32
2022-11-24T02:55:56.005Z,4.47
2022-11-24T02:57:00.839Z,3.45
2022-11-24T02:58:05.592Z,3.72
2022-11-24T02:59:10.611Z,3.53
2022-11-24T03:00:16.357Z,3.70
2022-11-24T03:01:18.694Z,4.68
2022-11-24T03:02:23.738Z,3.08
2022-11-24T03:03:26.364Z,3.58
2022-11-24T03:04:31.158Z,3.88
2022-11-24T03:05:33.365Z,4.78
2022-11-24T03:06:38.126Z,4.35
2022-11-24T03:07:40.246Z,3.85
2022-11-24T03:08:45.023Z,5.15
2022-11-24T03:09:47.054Z,4.38
2022-11-24T03:10:52.019Z,4.25
2022-11-24T03:11:54.125Z,3.65
2022-11-24T03:13:01.415Z,3.90
2022-11-24T03:14:03.763Z,4.22
2022-11-24T03:15:10.881Z,4.22
2022-11-24T03:16:13.200Z,3.97
2022-11-24T03:17:18.078Z,3.47
2022-11-24T03:18:20.348Z,3.90
2022-11-24T03:19:25.007Z,3.50
2022-11-24T03:20:27.162Z,3.58
2022-11-24T03:21:31.882Z,3.78
2022-11-24T03:22:33.974Z,3.03
2022-11-24T03:23:43.956Z,4.35
2022-11-24T03:24:46.015Z,4.45
2022-11-24T03:25:50.684Z,3.92
2022-11-24T03:26:52.965Z,3.13
2022-11-24T03:28:01.472Z,3.63
